createdAt,value
2017-12-19T00:01:21.704Z,4.30
2017-12-19T00:03:49.910Z,4.20
2017-12-19T00:06:18.144Z,4.30
2017-12-19T00:08:47.134Z,4.50
2017-12-19T00:11:15.377Z,4.40
2017-12-19T00:13:44.373Z,4.60
2017-12-19T00:16:12.590Z,4.60
2017-12-19T00:18:41.589Z,4.50
2017-12-19T00:21:09.819Z,4.50
2017-12-19T00:23:38.041Z,4.50
2017-12-19T00:26:07.012Z,4.40
2017-12-19T00:28:35.229Z,4.40
2017-12-19T00:31:03.434Z,4.40
2017-12-19T00:33:31.681Z,4.30
2017-12-19T00:35:59.923Z,4.40
2017-12-19T00:38:28.133Z,4.30
2017-12-19T00:40:56.333Z,4.40
2017-12-19T00:43:24.563Z,4.40
2017-12-19T00:45:52.766Z,4.50
2017-12-19T00:48:20.975Z,4.60
2017-12-19T00:50:49.208Z,4.60
2017-12-19T00:53:17.750Z,4.60
2017-12-19T00:55:45.962Z,4.60
2017-12-19T00:58:14.170Z,4.60
2017-12-19T01:00:42.404Z,4.50
2017-12-19T01:03:10.609Z,4.50
2017-12-19T01:05:39.126Z,4.40
2017-12-19T01:08:07.345Z,4.40
2017-12-19T01:10:35.987Z,4.30
2017-12-19T01:13:04.215Z,4.20
2017-12-19T01:15:32.421Z,4.20
2017-12-19T01:18:00.915Z,4.20
2017-12-19T01:20:29.907Z,4.20
2017-12-19T01:22:58.158Z,4.20
2017-12-19T01:25:26.382Z,4.30
2017-12-19T01:27:54.602Z,4.30
2017-12-19T01:30:22.816Z,4.30
2017-12-19T01:32:51.789Z,4.40
2017-12-19T01:35:20.030Z,4.30
2017-12-19T01:37:48.249Z,4.40
2017-12-19T01:40:16.451Z,4.30
2017-12-19T01:42:44.667Z,4.30
2017-12-19T01:45:12.889Z,4.40
2017-12-19T01:47:41.113Z,4.30
2017-12-19T01:50:10.141Z,4.20
2017-12-19T01:52:39.122Z,4.20
2017-12-19T01:55:08.432Z,4.20
2017-12-19T01:57:37.401Z,4.20
2017-12-19T02:00:05.620Z,4.10
2017-12-19T02:02:33.842Z,4.20
2017-12-19T02:05:02.349Z,4.10
2017-12-19T02:07:30.571Z,4.20
2017-12-19T02:09:58.802Z,4.20
2017-12-19T02:15:02.465Z,4.10
2017-12-19T02:17:30.717Z,4.20
2017-12-19T02:19:58.951Z,4.20
2017-12-19T02:22:27.963Z,4.20
2017-12-19T02:24:56.154Z,4.20
2017-12-19T02:27:25.226Z,4.00
2017-12-19T02:29:54.197Z,4.00
2017-12-19T02:32:23.322Z,4.00
2017-12-19T02:34:52.762Z,3.90
2017-12-19T02:37:21.117Z,3.90
2017-12-19T02:39:49.350Z,3.90
2017-12-19T02:42:17.553Z,3.90
2017-12-19T02:44:46.524Z,3.80
2017-12-19T02:47:15.017Z,3.80
2017-12-19T02:49:43.219Z,3.80
2017-12-19T02:52:11.425Z,3.80
2017-12-19T02:54:39.638Z,3.90
2017-12-19T02:57:07.866Z,3.90
2017-12-19T02:59:36.087Z,3.90
2017-12-19T03:02:04.289Z,3.80
2017-12-19T03:04:33.909Z,3.80
2017-12-19T03:07:02.158Z,3.80
2017-12-19T03:09:30.374Z,3.80
2017-12-19T03:11:58.585Z,3.90
2017-12-19T03:14:27.069Z,3.90
2017-12-19T03:16:55.299Z,3.90
2017-12-19T03:19:23.507Z,3.90
2017-12-19T03:21:54.683Z,3.90
2017-12-19T03:24:25.391Z,3.90
2017-12-19T03:26:53.598Z,3.80
2017-12-19T03:29:21.795Z,3.90
2017-12-19T03:31:50.014Z,3.90
2017-12-19T03:34:18.218Z,3.90
2017-12-19T03:36:46.774Z,3.90
2017-12-19T03:39:15.023Z,4.00
2017-12-19T03:41:44.743Z,4.00
2017-12-19T03:44:12.977Z,4.00
2017-12-19T03:46:41.923Z,4.00
2017-12-19T03:49:10.134Z,4.00
2017-12-19T03:51:38.574Z,4.00
2017-12-19T03:54:06.800Z,4.00
2017-12-19T03:56:35.006Z,4.10
2017-12-19T03:59:03.999Z,4.00
2017-12-19T04:01:32.211Z,4.00
2017-12-19T04:04:01.174Z,4.00
2017-12-19T04:06:29.379Z,4.00
2017-12-19T04:08:58.345Z,4.10
2017-12-19T04:11:26.562Z,4.10
2017-12-19T04:13:54.768Z,4.10
2017-12-19T04:16:22.983Z,4.10
2017-12-19T04:18:51.213Z,4.10
2017-12-19T04:21:19.438Z,4.10
2017-12-19T04:23:47.646Z,4.10
2017-12-19T04:26:15.888Z,4.20
2017-12-19T04:28:44.858Z,4.20
2017-12-19T04:31:13.078Z,4.20
2017-12-19T04:33:41.306Z,4.20
2017-12-19T04:36:09.517Z,4.30
2017-12-19T04:38:37.770Z,4.20
2017-12-19T04:41:06.738Z,4.20
2017-12-19T04:43:34.961Z,4.20
2017-12-19T04:46:03.165Z,4.30
2017-12-19T04:48:31.397Z,4.30
2017-12-19T04:50:59.609Z,4.20
2017-12-19T04:53:27.814Z,4.10
2017-12-19T04:55:56.789Z,4.00
2017-12-19T04:58:25.014Z,4.00
2017-12-19T05:00:53.253Z,4.00
2017-12-19T05:03:22.321Z,4.10
2017-12-19T05:05:50.533Z,4.10
2017-12-19T05:08:18.729Z,4.10
2017-12-19T05:10:48.002Z,4.20
2017-12-19T05:13:16.482Z,4.20
2017-12-19T05:15:45.468Z,4.30
2017-12-19T05:18:14.449Z,4.40
2017-12-19T05:20:42.693Z,4.30
2017-12-19T05:23:10.897Z,4.40
2017-12-19T05:25:39.105Z,4.40
2017-12-19T05:30:42.617Z,4.40
2017-12-19T05:33:10.851Z,4.40
2017-12-19T05:35:39.066Z,4.40
2017-12-19T05:38:08.046Z,4.30
2017-12-19T05:40:36.245Z,4.20
2017-12-19T05:43:05.235Z,4.20
2017-12-19T05:45:34.217Z,4.10
2017-12-19T05:48:03.185Z,4.20
2017-12-19T05:50:32.187Z,4.10
2017-12-19T05:53:00.385Z,4.10
2017-12-19T05:55:28.610Z,4.10
2017-12-19T05:57:56.812Z,4.10
2017-12-19T06:00:25.338Z,4.10
2017-12-19T06:02:53.481Z,4.00
2017-12-19T06:05:22.462Z,4.10
2017-12-19T06:07:51.446Z,4.10
2017-12-19T06:10:19.961Z,4.10
2017-12-19T06:12:48.163Z,4.10
2017-12-19T06:15:16.358Z,4.10
2017-12-19T06:17:44.558Z,4.00
2017-12-19T06:20:12.781Z,3.90
2017-12-19T06:22:41.005Z,3.90
2017-12-19T06:25:09.198Z,3.80
2017-12-19T06:27:37.417Z,3.80
2017-12-19T06:30:05.614Z,3.80
2017-12-19T06:32:33.830Z,3.90
2017-12-19T06:35:02.034Z,4.00
2017-12-19T06:37:30.270Z,4.00
2017-12-19T06:39:58.470Z,4.00
2017-12-19T06:42:26.697Z,3.90
2017-12-19T06:44:55.668Z,3.90
2017-12-19T06:47:23.878Z,3.90
2017-12-19T06:49:52.122Z,3.90
2017-12-19T06:52:21.221Z,3.90
2017-12-19T06:54:49.762Z,3.80
2017-12-19T06:57:18.002Z,3.90
2017-12-19T06:59:46.975Z,3.90
2017-12-19T07:02:15.205Z,3.90
2017-12-19T07:04:43.459Z,3.90
2017-12-19T07:07:11.669Z,3.90
2017-12-19T07:09:39.905Z,3.90
2017-12-19T07:12:08.109Z,3.90
2017-12-19T07:14:36.310Z,4.00
2017-12-19T07:17:05.319Z,4.00
2017-12-19T07:19:34.294Z,4.10
2017-12-19T07:22:02.506Z,4.00
2017-12-19T07:24:30.717Z,4.00
2017-12-19T07:26:58.931Z,4.00
2017-12-19T07:29:27.126Z,4.00
2017-12-19T07:31:56.106Z,4.10
2017-12-19T07:34:25.092Z,4.10
2017-12-19T07:36:53.313Z,4.10
2017-12-19T07:39:22.351Z,4.20
2017-12-19T07:41:51.367Z,4.20
2017-12-19T07:44:20.331Z,4.20
2017-12-19T07:46:48.546Z,4.10
2017-12-19T07:49:16.758Z,4.20
2017-12-19T07:51:44.994Z,4.20
2017-12-19T07:54:14.076Z,4.10
2017-12-19T07:56:42.846Z,4.10
2017-12-19T07:59:11.847Z,4.10
2017-12-19T08:01:40.814Z,4.10
2017-12-19T08:04:09.053Z,4.00
2017-12-19T08:06:37.250Z,4.00
2017-12-19T08:09:06.266Z,4.10
2017-12-19T08:11:35.468Z,4.20
2017-12-19T08:14:04.585Z,4.20
2017-12-19T08:16:32.798Z,4.20
2017-12-19T08:19:01.037Z,4.20
2017-12-19T08:21:29.246Z,4.20
2017-12-19T08:23:57.441Z,4.30
2017-12-19T08:26:25.654Z,4.30
2017-12-19T08:28:54.630Z,4.40
2017-12-19T08:31:23.616Z,4.40
2017-12-19T08:33:51.826Z,4.40
2017-12-19T08:36:20.052Z,4.50
2017-12-19T08:38:48.265Z,4.50
2017-12-19T08:41:16.477Z,4.50
2017-12-19T08:43:44.691Z,4.50
2017-12-19T08:46:12.900Z,4.40
2017-12-19T08:48:41.110Z,4.40
2017-12-19T08:51:09.323Z,4.40
2017-12-19T08:53:38.282Z,4.40
2017-12-19T08:56:06.534Z,4.40
2017-12-19T08:58:34.705Z,4.40
2017-12-19T09:01:02.942Z,4.50
2017-12-19T09:03:31.910Z,4.50
2017-12-19T09:06:00.126Z,4.40
2017-12-19T09:08:28.338Z,4.50
2017-12-19T09:10:57.358Z,4.60
2017-12-19T09:13:25.669Z,4.50
2017-12-19T09:15:53.882Z,4.60
2017-12-19T09:18:22.106Z,4.60
2017-12-19T09:20:50.315Z,4.60
2017-12-19T09:23:18.558Z,4.60
2017-12-19T09:25:46.782Z,4.60
2017-12-19T09:28:14.986Z,4.70
2017-12-19T09:30:43.974Z,4.70
2017-12-19T09:33:12.954Z,4.70
2017-12-19T09:35:41.949Z,4.70
2017-12-19T09:38:10.149Z,4.60
2017-12-19T09:40:38.366Z,4.70
2017-12-19T09:43:07.402Z,4.70
2017-12-19T09:45:36.702Z,4.70
2017-12-19T09:48:05.394Z,4.60
2017-12-19T09:50:33.622Z,4.70
2017-12-19T09:53:01.821Z,4.70
2017-12-19T09:55:30.039Z,4.70
2017-12-19T09:57:58.242Z,4.70
2017-12-19T10:00:26.455Z,4.70
2017-12-19T10:02:54.660Z,4.80
2017-12-19T10:05:22.902Z,4.90
2017-12-19T10:07:51.894Z,4.90
2017-12-19T10:10:20.102Z,4.80
2017-12-19T10:12:48.323Z,4.90
2017-12-19T10:15:16.524Z,4.90
2017-12-19T10:17:44.770Z,5.00
2017-12-19T10:20:12.986Z,5.10
2017-12-19T10:22:41.448Z,5.10
2017-12-19T10:25:10.422Z,5.00
2017-12-19T10:27:39.435Z,5.00
2017-12-19T10:30:07.636Z,5.00
2017-12-19T10:32:35.869Z,5.00
2017-12-19T10:35:04.858Z,5.00
2017-12-19T10:37:33.072Z,4.90
2017-12-19T10:40:02.035Z,5.00
2017-12-19T10:42:30.277Z,4.90
2017-12-19T10:44:58.498Z,4.90
2017-12-19T10:47:26.764Z,5.00
2017-12-19T10:49:55.274Z,5.10
2017-12-19T10:52:24.248Z,5.10
2017-12-19T10:54:52.459Z,5.10
2017-12-19T10:57:20.670Z,5.10
2017-12-19T10:59:49.703Z,5.10
2017-12-19T11:02:18.665Z,5.20
2017-12-19T11:04:46.877Z,5.10
2017-12-19T11:07:15.089Z,5.10
2017-12-19T11:09:43.406Z,5.10
2017-12-19T11:12:12.375Z,5.10
2017-12-19T11:14:40.612Z,5.10
2017-12-19T11:17:08.826Z,5.10
2017-12-19T11:19:37.080Z,5.20
2017-12-19T11:22:05.301Z,5.10
2017-12-19T11:24:33.514Z,5.20
2017-12-19T11:27:01.742Z,5.20
2017-12-19T11:29:30.719Z,5.30
2017-12-19T11:31:59.006Z,5.20
2017-12-19T11:34:29.619Z,5.30
2017-12-19T11:36:58.635Z,5.40
2017-12-19T11:39:27.118Z,5.40
2017-12-19T11:41:55.334Z,5.40
2017-12-19T11:44:23.562Z,5.40
2017-12-19T11:46:52.550Z,5.40
2017-12-19T11:49:21.540Z,5.50
2017-12-19T11:51:49.746Z,5.40
2017-12-19T11:54:18.018Z,5.50
2017-12-19T11:56:46.971Z,5.60
2017-12-19T11:59:15.973Z,5.60
2017-12-19T12:01:44.214Z,5.60
2017-12-19T12:04:13.351Z,5.50
2017-12-19T12:06:41.561Z,5.50
2017-12-19T12:09:09.807Z,5.60
2017-12-19T12:11:38.786Z,5.60
2017-12-19T12:14:06.986Z,5.60
2017-12-19T12:16:35.209Z,5.60
2017-12-19T12:19:03.435Z,5.60
2017-12-19T12:21:31.747Z,5.50
2017-12-19T12:23:59.969Z,5.50
2017-12-19T12:26:28.206Z,5.60
2017-12-19T12:28:56.418Z,5.70
2017-12-19T12:31:25.415Z,5.70
2017-12-19T12:33:54.394Z,5.70
2017-12-19T12:36:22.606Z,5.70
2017-12-19T12:38:51.022Z,5.80
2017-12-19T12:41:19.238Z,5.80
2017-12-19T12:43:47.482Z,5.80
2017-12-19T12:46:15.695Z,5.80
2017-12-19T12:48:43.910Z,5.80
2017-12-19T12:51:12.119Z,5.80
2017-12-19T12:53:41.110Z,5.90
2017-12-19T12:56:09.334Z,5.80
2017-12-19T12:58:37.554Z,5.90
2017-12-19T13:01:05.753Z,6.00
2017-12-19T13:03:33.965Z,5.90
2017-12-19T13:06:02.169Z,5.80
2017-12-19T13:08:31.200Z,5.70
2017-12-19T13:10:59.427Z,5.70
2017-12-19T13:13:27.629Z,5.70
2017-12-19T13:15:56.614Z,5.70
2017-12-19T13:18:24.821Z,5.60
2017-12-19T13:20:53.030Z,5.70
2017-12-19T13:23:21.247Z,5.70
2017-12-19T13:25:50.234Z,5.70
2017-12-19T13:28:19.211Z,5.70
2017-12-19T13:30:47.418Z,5.70
2017-12-19T13:33:15.631Z,5.70
2017-12-19T13:35:43.838Z,5.60
2017-12-19T13:38:12.812Z,5.70
2017-12-19T13:40:41.038Z,5.60
2017-12-19T13:43:09.262Z,5.70
2017-12-19T13:45:37.515Z,5.70
2017-12-19T13:48:06.413Z,5.80
2017-12-19T13:50:35.055Z,5.80
2017-12-19T13:53:04.009Z,5.80
2017-12-19T13:55:32.541Z,5.80
2017-12-19T13:58:00.811Z,5.80
2017-12-19T14:00:29.031Z,5.70
2017-12-19T14:02:57.249Z,5.70
2017-12-19T14:05:26.219Z,5.70
2017-12-19T14:08:06.597Z,5.70
2017-12-19T14:10:34.896Z,5.70
2017-12-19T14:13:03.118Z,5.70
2017-12-19T14:15:31.371Z,5.70
2017-12-19T14:17:59.633Z,5.70
2017-12-19T14:20:27.841Z,5.70
2017-12-19T14:22:56.062Z,5.60
2017-12-19T14:25:24.265Z,5.60
2017-12-19T14:27:52.477Z,5.60
2017-12-19T14:30:20.691Z,5.60
2017-12-19T14:32:48.924Z,5.60
2017-12-19T14:35:17.135Z,5.60
2017-12-19T14:37:45.338Z,5.60
2017-12-19T14:40:13.591Z,5.70
2017-12-19T14:42:41.799Z,5.70
2017-12-19T14:45:10.018Z,5.70
2017-12-19T14:47:38.234Z,5.70
2017-12-19T14:50:06.450Z,5.70
2017-12-19T14:52:35.479Z,5.70
2017-12-19T14:55:03.704Z,5.70
2017-12-19T14:57:32.855Z,5.80
2017-12-19T15:00:01.086Z,5.70
2017-12-19T15:02:29.290Z,5.80
2017-12-19T15:04:57.510Z,5.80
2017-12-19T15:07:25.726Z,5.80
2017-12-19T15:09:54.691Z,5.90
2017-12-19T15:12:23.686Z,5.90
2017-12-19T15:14:52.989Z,5.80
2017-12-19T15:17:21.981Z,5.80
2017-12-19T15:19:50.175Z,5.80
2017-12-19T15:22:19.207Z,5.70
2017-12-19T15:24:48.134Z,5.70
2017-12-19T15:27:16.350Z,5.70
2017-12-19T15:29:44.584Z,5.70
2017-12-19T15:32:12.799Z,5.70
2017-12-19T15:34:41.342Z,5.80
2017-12-19T15:37:09.546Z,5.80
2017-12-19T15:39:37.778Z,5.80
2017-12-19T15:42:05.994Z,5.90
2017-12-19T15:44:34.242Z,5.90
2017-12-19T15:47:02.476Z,6.00
2017-12-19T15:49:31.501Z,6.00
2017-12-19T15:51:59.992Z,6.00
2017-12-19T15:54:29.497Z,6.00
2017-12-19T15:56:57.710Z,6.00
2017-12-19T15:59:25.909Z,6.00
2017-12-19T16:01:54.145Z,5.90
2017-12-19T16:04:22.341Z,5.90
2017-12-19T16:06:50.643Z,5.90
2017-12-19T16:09:18.812Z,5.90
2017-12-19T16:11:47.837Z,5.80
2017-12-19T16:14:16.045Z,5.80
2017-12-19T16:16:44.291Z,5.80
2017-12-19T16:19:13.265Z,5.90
2017-12-19T16:21:41.474Z,5.90
2017-12-19T16:24:09.701Z,5.90
2017-12-19T16:26:37.921Z,5.90
2017-12-19T16:29:06.138Z,5.90
2017-12-19T16:31:34.385Z,5.90
2017-12-19T16:34:02.613Z,5.90
2017-12-19T16:36:30.858Z,5.90
2017-12-19T16:38:59.071Z,5.90
2017-12-19T16:41:28.042Z,6.00
2017-12-19T16:43:56.545Z,5.90
2017-12-19T16:46:25.525Z,6.00
2017-12-19T16:48:53.750Z,6.00
2017-12-19T16:51:21.958Z,5.90
2017-12-19T16:53:50.186Z,5.90
2017-12-19T16:56:18.389Z,5.90
2017-12-19T16:58:46.605Z,5.90
2017-12-19T17:01:15.586Z,5.90
2017-12-19T17:03:44.589Z,5.90
2017-12-19T17:06:13.570Z,5.90
2017-12-19T17:08:41.810Z,5.90
2017-12-19T17:11:10.032Z,5.90
2017-12-19T17:13:38.242Z,5.90
2017-12-19T17:16:06.449Z,5.90
2017-12-19T17:18:34.672Z,5.90
2017-12-19T17:21:02.901Z,6.00
2017-12-19T17:23:31.113Z,5.90
2017-12-19T17:26:00.094Z,5.90
2017-12-19T17:28:29.098Z,5.90
2017-12-19T17:30:57.338Z,5.90
2017-12-19T17:33:25.557Z,5.90
2017-12-19T17:35:53.831Z,6.00
2017-12-19T17:38:22.077Z,6.00
2017-12-19T17:40:51.078Z,6.00
2017-12-19T17:43:20.126Z,6.00
2017-12-19T17:45:48.333Z,6.00
2017-12-19T17:48:16.549Z,6.00
2017-12-19T17:50:44.754Z,6.00
2017-12-19T17:53:12.971Z,6.00
2017-12-19T17:55:41.181Z,5.90
2017-12-19T17:58:09.424Z,6.00
2017-12-19T18:00:37.625Z,5.90
2017-12-19T18:03:05.832Z,5.90
2017-12-19T18:05:34.042Z,5.90
2017-12-19T18:08:02.251Z,6.00
2017-12-19T18:10:31.443Z,6.00
2017-12-19T18:12:59.679Z,6.00
2017-12-19T18:15:27.889Z,6.00
2017-12-19T18:17:56.085Z,6.10
2017-12-19T18:20:24.355Z,6.10
2017-12-19T18:22:52.579Z,6.20
2017-12-19T18:25:20.780Z,6.20
2017-12-19T18:27:49.762Z,6.10
2017-12-19T18:30:18.823Z,6.10
2017-12-19T18:32:47.046Z,6.10
2017-12-19T18:35:15.286Z,6.00
2017-12-19T18:37:43.526Z,6.00
2017-12-19T18:40:11.725Z,6.00
2017-12-19T18:42:39.934Z,6.00
2017-12-19T18:45:08.285Z,5.90
2017-12-19T18:47:36.614Z,5.90
2017-12-19T18:50:04.935Z,5.90
2017-12-19T18:52:33.190Z,5.80
2017-12-19T18:55:01.405Z,5.90
2017-12-19T18:57:29.632Z,5.90
2017-12-19T18:59:57.851Z,5.90
2017-12-19T19:02:26.818Z,5.90
2017-12-19T19:04:55.202Z,5.80
2017-12-19T19:07:23.487Z,5.90
2017-12-19T19:09:52.499Z,5.90
2017-12-19T19:12:21.478Z,5.90
2017-12-19T19:14:49.722Z,5.80
2017-12-19T19:17:17.943Z,5.90
2017-12-19T19:19:46.222Z,5.80
2017-12-19T19:22:14.446Z,5.80
2017-12-19T19:24:42.665Z,5.80
2017-12-19T19:27:10.898Z,5.70
2017-12-19T19:29:39.143Z,5.70
2017-12-19T19:32:07.367Z,5.70
2017-12-19T19:34:35.573Z,5.60
2017-12-19T19:37:04.022Z,5.60
2017-12-19T19:39:33.005Z,5.60
2017-12-19T19:42:02.006Z,5.60
2017-12-19T19:44:31.025Z,5.60
2017-12-19T19:46:59.382Z,5.60
2017-12-19T19:49:28.790Z,5.70
2017-12-19T19:51:57.094Z,5.60
2017-12-19T19:54:25.409Z,5.60
2017-12-19T19:56:53.649Z,5.60
2017-12-19T19:59:22.654Z,5.50
2017-12-19T20:01:50.983Z,5.50
2017-12-19T20:04:19.291Z,5.50
2017-12-19T20:06:47.428Z,5.60
2017-12-19T20:09:15.650Z,5.60
2017-12-19T20:11:43.859Z,5.60
2017-12-19T20:14:12.085Z,5.60
2017-12-19T20:16:40.305Z,5.70
2017-12-19T20:19:08.554Z,5.70
2017-12-19T20:21:36.765Z,5.70
2017-12-19T20:24:05.255Z,5.70
2017-12-19T20:26:33.478Z,5.70
2017-12-19T20:29:01.697Z,5.70
2017-12-19T20:31:30.117Z,5.80
2017-12-19T20:33:58.350Z,5.80
2017-12-19T20:36:26.603Z,5.80
2017-12-19T20:38:55.038Z,5.90
2017-12-19T20:41:23.480Z,5.90
2017-12-19T20:43:51.691Z,5.90
2017-12-19T20:46:20.766Z,6.00
2017-12-19T20:48:49.006Z,5.90
2017-12-19T20:51:17.363Z,6.10
2017-12-19T20:53:45.654Z,6.10
2017-12-19T20:56:14.685Z,6.00
2017-12-19T20:58:43.028Z,6.00
2017-12-19T21:01:11.234Z,6.00
2017-12-19T21:03:40.225Z,5.90
2017-12-19T21:06:08.637Z,5.90
2017-12-19T21:08:36.865Z,6.00
2017-12-19T21:11:05.871Z,5.80
2017-12-19T21:13:34.882Z,5.80
2017-12-19T21:16:03.100Z,5.80
2017-12-19T21:18:31.318Z,5.80
2017-12-19T21:21:00.312Z,5.70
2017-12-19T21:23:28.538Z,5.70
2017-12-19T21:25:56.770Z,5.70
2017-12-19T21:28:24.994Z,5.80
2017-12-19T21:30:53.242Z,5.70
2017-12-19T21:33:21.469Z,5.80
2017-12-19T21:35:49.696Z,5.80
2017-12-19T21:38:19.025Z,5.80
2017-12-19T21:40:47.239Z,5.90
2017-12-19T21:43:16.206Z,6.00
2017-12-19T21:45:45.307Z,6.00
2017-12-19T21:48:13.497Z,6.00
2017-12-19T21:50:42.469Z,6.20
2017-12-19T21:53:10.683Z,6.20
2017-12-19T21:55:38.897Z,6.30
2017-12-19T21:58:07.109Z,6.30
2017-12-19T22:00:35.401Z,6.40
2017-12-19T22:03:03.624Z,6.40
2017-12-19T22:05:32.134Z,6.50
2017-12-19T22:08:00.383Z,6.60
2017-12-19T22:10:28.589Z,6.50
2017-12-19T22:12:57.594Z,6.60
2017-12-19T22:15:25.820Z,6.50
2017-12-19T22:17:54.041Z,6.60
2017-12-19T22:20:22.294Z,6.70
2017-12-19T22:22:50.493Z,6.70
2017-12-19T22:25:19.481Z,6.80
2017-12-19T22:27:47.707Z,6.70
2017-12-19T22:30:15.959Z,6.80
2017-12-19T22:32:44.153Z,6.80
2017-12-19T22:35:12.373Z,6.90
2017-12-19T22:37:41.351Z,6.90
2017-12-19T22:40:09.622Z,6.90
2017-12-19T22:42:37.828Z,6.90
2017-12-19T22:45:06.828Z,6.90
2017-12-19T22:47:35.274Z,6.90
2017-12-19T22:50:03.475Z,7.00
2017-12-19T22:52:31.723Z,7.00
2017-12-19T22:54:59.897Z,7.00
2017-12-19T22:57:28.881Z,6.90
2017-12-19T22:59:57.081Z,6.90
2017-12-19T23:02:25.310Z,6.90
2017-12-19T23:04:53.529Z,6.90
2017-12-19T23:07:21.792Z,6.90
2017-12-19T23:09:50.022Z,6.90
2017-12-19T23:12:18.245Z,7.00
2017-12-19T23:14:46.716Z,7.00
2017-12-19T23:17:15.714Z,7.00
2017-12-19T23:19:44.707Z,7.00
2017-12-19T23:22:12.925Z,6.90
2017-12-19T23:24:41.149Z,6.90
2017-12-19T23:27:10.145Z,7.00
2017-12-19T23:29:39.142Z,7.00
2017-12-19T23:32:08.126Z,7.00
2017-12-19T23:34:36.325Z,7.00
2017-12-19T23:37:04.549Z,7.10
2017-12-19T23:39:32.805Z,7.10
2017-12-19T23:42:01.034Z,7.10
2017-12-19T23:44:29.505Z,7.10
2017-12-19T23:46:57.821Z,7.20
2017-12-19T23:49:26.037Z,7.20
2017-12-19T23:51:54.336Z,7.10
2017-12-19T23:54:22.510Z,7.00
2017-12-19T23:56:50.754Z,7.00
2017-12-19T23:59:18.974Z,7.10
